createdAt,value
2023-02-06T00:01:27.546Z,103310.19
2023-02-06T00:03:55.249Z,103312.88
2023-02-06T00:06:24.364Z,103311.06
2023-02-06T00:08:52.067Z,103305.19
2023-02-06T00:11:21.675Z,103318.56
2023-02-06T00:13:50.182Z,103320.53
2023-02-06T00:16:19.686Z,103323.88
2023-02-06T00:18:47.889Z,103331.19
2023-02-06T00:21:15.741Z,103338.91
2023-02-06T00:23:45.002Z,103342.81
2023-02-06T00:26:12.729Z,103332.47
2023-02-06T00:28:40.661Z,103328.50
2023-02-06T00:31:09.158Z,103327.91
2023-02-06T00:33:37.500Z,103327.91
2023-02-06T00:36:05.802Z,103329.25
2023-02-06T00:38:33.812Z,103344.25
2023-02-06T00:41:02.879Z,103341.31
2023-02-06T00:43:30.758Z,103336.94
2023-02-06T00:45:59.329Z,103331.44
2023-02-06T00:48:27.348Z,103334.84
2023-02-06T00:50:55.850Z,103343.63
2023-02-06T00:53:24.044Z,103341.09
2023-02-06T00:55:51.677Z,103331.78
2023-02-06T00:58:20.771Z,103332.06
2023-02-06T01:00:48.411Z,103328.75
2023-02-06T01:03:16.044Z,103329.09
2023-02-06T01:05:43.691Z,103330.59
2023-02-06T01:08:11.387Z,103323.28
2023-02-06T01:10:41.506Z,103324.13
2023-02-06T01:13:09.324Z,103320.09
2023-02-06T01:15:38.976Z,103318.38
2023-02-06T01:18:06.819Z,103320.09
2023-02-06T01:20:34.945Z,103322.78
2023-02-06T01:23:02.579Z,103325.91
2023-02-06T01:25:30.352Z,103320.06
2023-02-06T01:27:58.054Z,103323.38
2023-02-06T01:30:25.889Z,103329.09
2023-02-06T01:32:54.961Z,103337.91
2023-02-06T01:35:22.605Z,103329.22
2023-02-06T01:37:50.312Z,103322.63
2023-02-06T01:40:19.148Z,103316.16
2023-02-06T01:42:46.827Z,103308.50
2023-02-06T01:45:42.307Z,103297.25
2023-02-06T01:48:15.643Z,103295.09
2023-02-06T01:50:47.603Z,103300.94
2023-02-06T01:53:17.173Z,103298.59
2023-02-06T01:55:46.706Z,103297.41
2023-02-06T01:58:18.665Z,103293.75
2023-02-06T02:00:46.875Z,103283.53
2023-02-06T02:03:16.150Z,103285.88
2023-02-06T02:05:46.314Z,103282.91
2023-02-06T02:08:19.526Z,103277.66
2023-02-06T02:10:47.540Z,103280.72
2023-02-06T02:13:15.192Z,103279.13
2023-02-06T02:15:51.594Z,103276.66
2023-02-06T02:18:39.102Z,103268.25
2023-02-06T02:21:26.526Z,103266.75
2023-02-06T02:24:02.868Z,103254.44
2023-02-06T02:27:06.961Z,103245.91
2023-02-06T02:30:11.609Z,103243.63
2023-02-06T02:32:57.464Z,103234.88
2023-02-06T02:35:31.063Z,103234.38
2023-02-06T02:38:09.494Z,103230.25
2023-02-06T02:40:45.699Z,103239.53
2023-02-06T02:43:21.465Z,103230.88
2023-02-06T02:45:55.558Z,103241.16
2023-02-06T02:48:26.322Z,103241.31
2023-02-06T02:50:57.370Z,103236.16
2023-02-06T02:53:25.060Z,103230.31
2023-02-06T02:55:52.852Z,103228.72
2023-02-06T02:58:24.199Z,103219.34
2023-02-06T03:00:56.410Z,103221.56
2023-02-06T03:03:28.751Z,103226.63
2023-02-06T03:06:21.477Z,103228.09
2023-02-06T03:08:57.170Z,103221.88
2023-02-06T03:11:25.147Z,103232.16
2023-02-06T03:13:56.794Z,103239.69
2023-02-06T03:16:27.080Z,103248.81
2023-02-06T03:18:58.425Z,103247.50
2023-02-06T03:21:29.543Z,103242.13
2023-02-06T03:24:00.588Z,103242.13
2023-02-06T03:26:30.744Z,103245.16
2023-02-06T03:29:02.196Z,103245.31
2023-02-06T03:31:34.670Z,103223.72
2023-02-06T03:34:06.810Z,103214.97
2023-02-06T03:36:36.411Z,103209.75
2023-02-06T03:39:04.866Z,103214.84
2023-02-06T03:41:37.075Z,103220.09
2023-02-06T03:44:07.686Z,103214.84
2023-02-06T03:46:40.342Z,103210.84
2023-02-06T03:49:09.635Z,103202.91
2023-02-06T03:51:45.173Z,103214.88
2023-02-06T03:54:15.300Z,103227.66
2023-02-06T03:56:48.230Z,103233.91
2023-02-06T03:59:15.969Z,103238.50
2023-02-06T04:01:46.725Z,103242.06
2023-02-06T04:04:16.066Z,103238.28
2023-02-06T04:06:45.623Z,103234.47
2023-02-06T04:09:13.407Z,103242.66
2023-02-06T04:11:41.268Z,103244.75
2023-02-06T04:14:08.962Z,103241.94
2023-02-06T04:16:36.597Z,103235.34
2023-02-06T04:19:04.286Z,103231.16
2023-02-06T04:21:31.946Z,103228.84
2023-02-06T04:24:00.920Z,103215.44
2023-02-06T04:26:28.617Z,103209.72
2023-02-06T04:28:56.271Z,103190.81
2023-02-06T04:31:23.978Z,103185.31
2023-02-06T04:33:51.680Z,103182.16
2023-02-06T04:36:19.312Z,103181.66
2023-02-06T04:38:47.003Z,103193.75
2023-02-06T04:41:16.023Z,103187.88
2023-02-06T04:43:43.724Z,103178.94
2023-02-06T04:46:11.417Z,103173.72
2023-02-06T04:48:39.273Z,103185.16
2023-02-06T04:51:07.273Z,103181.25
2023-02-06T04:53:35.004Z,103179.28
2023-02-06T04:56:03.517Z,103187.38
2023-02-06T04:58:32.738Z,103192.50
2023-02-06T05:01:00.457Z,103195.69
2023-02-06T05:03:29.584Z,103183.00
2023-02-06T05:05:59.710Z,103174.22
2023-02-06T05:08:27.696Z,103177.97
2023-02-06T05:10:56.111Z,103177.38
2023-02-06T05:13:24.702Z,103186.88
2023-02-06T05:15:53.967Z,103187.59
2023-02-06T05:18:21.698Z,103185.53
2023-02-06T05:20:49.325Z,103177.34
2023-02-06T05:23:17.118Z,103175.81
2023-02-06T05:25:44.816Z,103182.22
2023-02-06T05:28:12.529Z,103188.06
2023-02-06T05:30:40.345Z,103179.91
2023-02-06T05:33:09.452Z,103168.03
2023-02-06T05:35:38.628Z,103166.09
2023-02-06T05:38:06.921Z,103157.06
2023-02-06T05:40:34.655Z,103163.28
2023-02-06T05:43:02.297Z,103163.03
2023-02-06T05:45:29.982Z,103162.59
2023-02-06T05:47:57.632Z,103170.94
2023-02-06T05:50:26.687Z,103160.81
2023-02-06T05:52:54.413Z,103167.56
2023-02-06T05:55:22.114Z,103166.94
2023-02-06T05:57:49.754Z,103165.59
2023-02-06T06:00:18.015Z,103178.56
2023-02-06T06:02:45.752Z,103181.25
2023-02-06T06:05:13.429Z,103190.13
2023-02-06T06:07:42.621Z,103197.56
2023-02-06T06:10:10.747Z,103190.91
2023-02-06T06:12:38.649Z,103200.88
2023-02-06T06:15:07.146Z,103204.44
2023-02-06T06:17:34.899Z,103203.94
2023-02-06T06:20:02.690Z,103208.13
2023-02-06T06:22:30.377Z,103203.03
2023-02-06T06:24:59.393Z,103200.34
2023-02-06T06:27:27.008Z,103197.75
2023-02-06T06:29:54.678Z,103197.00
2023-02-06T06:32:22.272Z,103200.41
2023-02-06T06:34:49.914Z,103200.78
2023-02-06T06:37:17.621Z,103188.09
2023-02-06T06:39:45.230Z,103189.78
2023-02-06T06:42:14.251Z,103194.91
2023-02-06T06:44:41.918Z,103201.22
2023-02-06T06:47:10.630Z,103200.09
2023-02-06T06:49:38.887Z,103194.72
2023-02-06T06:52:13.395Z,103184.13
2023-02-06T06:54:47.405Z,103182.47
2023-02-06T06:57:16.449Z,103182.69
2023-02-06T06:59:44.139Z,103182.69
2023-02-06T07:02:12.113Z,103174.63
2023-02-06T07:04:39.833Z,103167.41
2023-02-06T07:07:08.016Z,103175.69
2023-02-06T07:09:35.678Z,103177.91
2023-02-06T07:12:03.349Z,103179.88
2023-02-06T07:14:32.459Z,103178.44
2023-02-06T07:17:01.596Z,103169.50
2023-02-06T07:19:29.414Z,103174.34
2023-02-06T07:21:57.075Z,103179.47
2023-02-06T07:24:24.798Z,103175.06
2023-02-06T07:26:52.516Z,103173.09
2023-02-06T07:29:20.217Z,103177.91
2023-02-06T07:31:49.405Z,103181.69
2023-02-06T07:34:17.694Z,103185.25
2023-02-06T07:36:45.367Z,103171.66
2023-02-06T07:39:13.136Z,103166.91
2023-02-06T07:41:40.997Z,103161.75
2023-02-06T07:44:08.906Z,103163.66
2023-02-06T07:46:36.563Z,103164.66
2023-02-06T07:49:05.656Z,103164.84
2023-02-06T07:51:33.266Z,103159.84
2023-02-06T07:54:00.970Z,103166.22
2023-02-06T07:56:28.643Z,103167.84
2023-02-06T07:58:56.389Z,103176.06
2023-02-06T08:01:24.441Z,103189.25
2023-02-06T08:03:52.646Z,103184.47
2023-02-06T08:06:24.453Z,103178.94
2023-02-06T08:08:52.849Z,103180.84
2023-02-06T08:11:23.664Z,103180.31
2023-02-06T08:13:51.289Z,103182.72
2023-02-06T08:16:20.402Z,103181.41
2023-02-06T08:18:48.637Z,103183.06
2023-02-06T08:21:18.345Z,103176.84
2023-02-06T08:23:47.646Z,103180.97
2023-02-06T08:26:17.269Z,103183.13
2023-02-06T08:28:46.852Z,103174.09
2023-02-06T08:31:16.660Z,103176.16
2023-02-06T08:33:45.431Z,103172.44
2023-02-06T08:36:14.472Z,103180.34
2023-02-06T08:38:42.466Z,103176.41
2023-02-06T08:41:18.824Z,103182.94
2023-02-06T08:43:46.869Z,103179.41
2023-02-06T08:46:15.207Z,103183.66
2023-02-06T08:48:43.048Z,103189.03
2023-02-06T08:51:11.981Z,103181.66
2023-02-06T08:53:40.009Z,103175.19
2023-02-06T08:56:10.892Z,103173.19
2023-02-06T08:58:40.179Z,103165.56
2023-02-06T09:01:08.680Z,103163.47
2023-02-06T09:03:36.738Z,103163.06
2023-02-06T09:06:10.130Z,103173.56
2023-02-06T09:08:39.093Z,103177.53
2023-02-06T09:11:07.750Z,103173.16
2023-02-06T09:13:35.480Z,103173.31
2023-02-06T09:16:05.786Z,103190.91
2023-02-06T09:18:33.443Z,103188.09
2023-02-06T09:21:08.174Z,103196.88
2023-02-06T09:23:35.940Z,103209.06
2023-02-06T09:26:03.692Z,103213.88
2023-02-06T09:28:31.396Z,103201.41
2023-02-06T09:30:59.260Z,103203.00
2023-02-06T09:33:28.425Z,103210.91
2023-02-06T09:36:03.661Z,103216.19
2023-02-06T09:38:31.491Z,103213.59
2023-02-06T09:41:01.911Z,103223.66
2023-02-06T09:43:30.306Z,103219.28
2023-02-06T09:46:01.540Z,103229.50
2023-02-06T09:48:34.597Z,103237.16
2023-02-06T09:51:08.421Z,103241.72
2023-02-06T09:53:45.883Z,103241.44
2023-02-06T09:56:22.039Z,103236.16
2023-02-06T09:58:57.702Z,103243.41
2023-02-06T10:01:30.656Z,103244.53
2023-02-06T10:04:13.836Z,103253.44
2023-02-06T10:06:47.823Z,103246.13
2023-02-06T10:09:21.298Z,103248.66
2023-02-06T10:11:56.367Z,103246.13
2023-02-06T10:14:33.978Z,103237.28
2023-02-06T10:17:04.335Z,103247.34
2023-02-06T10:19:43.830Z,103253.31
2023-02-06T10:22:16.871Z,103253.44
2023-02-06T10:24:51.188Z,103263.53
2023-02-06T10:27:20.697Z,103254.72
2023-02-06T10:29:48.672Z,103239.16
2023-02-06T10:32:29.781Z,103242.84
2023-02-06T10:35:30.889Z,103257.41
2023-02-06T10:38:19.111Z,103256.59
2023-02-06T10:40:54.086Z,103247.34
2023-02-06T10:43:36.257Z,103250.47
2023-02-06T10:46:24.771Z,103240.97
2023-02-06T10:48:58.766Z,103237.44
2023-02-06T10:51:32.987Z,103239.00
2023-02-06T10:54:03.175Z,103234.84
2023-02-06T10:56:35.396Z,103246.94
2023-02-06T10:59:08.117Z,103253.88
2023-02-06T11:01:39.129Z,103253.19
2023-02-06T11:04:14.987Z,103243.25
2023-02-06T11:06:46.801Z,103249.63
2023-02-06T11:09:14.605Z,103254.88
2023-02-06T11:11:48.551Z,103266.91
2023-02-06T11:14:20.568Z,103255.31
2023-02-06T11:16:48.643Z,103247.22
2023-02-06T11:19:20.113Z,103243.94
2023-02-06T11:22:10.515Z,103255.44
2023-02-06T11:24:38.566Z,103252.22
2023-02-06T11:27:15.546Z,103249.34
2023-02-06T11:29:50.990Z,103251.78
2023-02-06T11:32:37.642Z,103250.53
2023-02-06T11:35:08.783Z,103255.75
2023-02-06T11:37:40.051Z,103257.75
2023-02-06T11:40:25.481Z,103266.53
2023-02-06T11:43:08.428Z,103281.00
2023-02-06T11:45:37.001Z,103275.63
2023-02-06T11:48:07.168Z,103272.66
2023-02-06T11:50:38.234Z,103277.34
2023-02-06T11:53:12.947Z,103290.38
2023-02-06T11:55:42.602Z,103296.47
2023-02-06T11:58:22.118Z,103296.78
2023-02-06T12:00:59.816Z,103281.88
2023-02-06T12:03:31.692Z,103285.56
2023-02-06T12:06:03.767Z,103272.25
2023-02-06T12:08:41.479Z,103281.31
2023-02-06T12:11:17.539Z,103282.63
2023-02-06T12:13:48.606Z,103280.34
2023-02-06T12:16:16.855Z,103272.81
2023-02-06T12:18:49.329Z,103282.03
2023-02-06T12:21:24.357Z,103289.41
2023-02-06T12:23:57.377Z,103287.72
2023-02-06T12:26:29.657Z,103283.59
2023-02-06T12:29:03.175Z,103287.84
2023-02-06T12:31:41.548Z,103287.72
2023-02-06T12:34:16.376Z,103284.03
2023-02-06T12:36:54.950Z,103285.72
2023-02-06T12:39:24.652Z,103284.44
2023-02-06T12:42:29.717Z,103285.16
2023-02-06T12:45:02.985Z,103289.56
2023-02-06T12:47:37.664Z,103284.03
2023-02-06T12:50:14.594Z,103286.28
2023-02-06T12:52:46.925Z,103288.56
2023-02-06T12:55:22.412Z,103277.78
2023-02-06T12:57:50.658Z,103292.84
2023-02-06T13:00:56.887Z,103287.59
2023-02-06T13:03:30.843Z,103283.19
2023-02-06T13:06:11.777Z,103275.97
2023-02-06T13:08:44.960Z,103284.75
2023-02-06T13:11:25.447Z,103287.59
2023-02-06T13:14:00.606Z,103288.16
2023-02-06T13:16:39.660Z,103291.56
2023-02-06T13:19:07.354Z,103295.81
2023-02-06T13:21:36.693Z,103291.00
2023-02-06T13:24:15.663Z,103303.47
2023-02-06T13:27:12.824Z,103302.06
2023-02-06T13:29:42.692Z,103306.31
2023-02-06T13:32:33.208Z,103305.59
2023-02-06T13:35:06.542Z,103305.59
2023-02-06T13:37:37.450Z,103307.88
2023-02-06T13:40:30.565Z,103319.66
2023-02-06T13:43:03.623Z,103320.66
2023-02-06T13:45:34.283Z,103321.38
2023-02-06T13:48:39.822Z,103331.88
2023-02-06T13:51:22.783Z,103338.44
2023-02-06T13:54:11.234Z,103339.69
2023-02-06T13:56:52.824Z,103331.47
2023-02-06T13:59:26.125Z,103335.16
2023-02-06T14:05:47.430Z,103333.56
2023-02-06T14:08:24.466Z,103342.66
2023-02-06T14:11:13.743Z,103351.31
2023-02-06T14:14:01.434Z,103349.31
2023-02-06T14:16:42.158Z,103356.41
2023-02-06T14:19:18.890Z,103362.03
2023-02-06T14:21:54.152Z,103376.91
2023-02-06T14:24:35.392Z,103388.28
2023-02-06T14:27:18.667Z,103394.16
2023-02-06T14:30:02.990Z,103406.09
2023-02-06T14:32:44.037Z,103424.97
2023-02-06T14:35:25.000Z,103416.75
2023-02-06T14:38:09.211Z,103433.13
2023-02-06T14:40:42.514Z,103427.03
2023-02-06T14:43:17.996Z,103436.84
2023-02-06T14:46:05.406Z,103441.19
2023-02-06T14:48:39.951Z,103454.50
2023-02-06T14:51:10.087Z,103457.88
2023-02-06T14:53:39.790Z,103450.19
2023-02-06T14:56:10.490Z,103451.13
2023-02-06T14:58:38.215Z,103463.47
2023-02-06T15:01:15.382Z,103457.81
2023-02-06T15:03:45.340Z,103470.91
2023-02-06T15:06:16.262Z,103469.22
2023-02-06T15:08:49.397Z,103479.94
2023-02-06T15:11:21.056Z,103477.06
2023-02-06T15:13:51.443Z,103467.75
2023-02-06T15:16:19.257Z,103474.53
2023-02-06T15:18:48.445Z,103480.78
2023-02-06T15:21:18.086Z,103479.13
2023-02-06T15:23:59.176Z,103479.50
2023-02-06T15:26:35.492Z,103473.75
2023-02-06T15:29:05.790Z,103478.56
2023-02-06T15:31:33.699Z,103481.56
2023-02-06T15:34:03.875Z,103489.34
2023-02-06T15:36:33.924Z,103482.59
2023-02-06T15:39:03.581Z,103478.50
2023-02-06T15:41:32.318Z,103475.44
2023-02-06T15:44:02.567Z,103473.94
2023-02-06T15:46:31.817Z,103471.41
2023-02-06T15:48:59.641Z,103464.94
2023-02-06T15:51:30.717Z,103471.63
2023-02-06T15:54:08.754Z,103476.47
2023-02-06T15:56:38.787Z,103472.22
2023-02-06T15:59:08.481Z,103465.97
2023-02-06T16:01:40.859Z,103480.44
2023-02-06T16:04:14.352Z,103480.59
2023-02-06T16:06:43.437Z,103476.75
2023-02-06T16:09:20.977Z,103473.78
2023-02-06T16:11:52.088Z,103479.19
2023-02-06T16:14:25.137Z,103481.56
2023-02-06T16:17:01.062Z,103478.84
2023-02-06T16:19:38.724Z,103489.50
2023-02-06T16:22:17.450Z,103490.03
2023-02-06T16:24:45.405Z,103483.22
2023-02-06T16:27:18.207Z,103487.28
2023-02-06T16:29:50.108Z,103476.22
2023-02-06T16:32:21.972Z,103481.03
2023-02-06T16:34:49.694Z,103484.72
2023-02-06T16:37:20.548Z,103480.72
2023-02-06T16:39:48.841Z,103483.84
2023-02-06T16:42:19.089Z,103488.50
2023-02-06T16:44:50.097Z,103499.53
2023-02-06T16:47:20.261Z,103497.41
2023-02-06T16:49:49.556Z,103499.66
2023-02-06T16:52:21.406Z,103507.75
2023-02-06T16:54:49.370Z,103506.31
2023-02-06T16:57:23.730Z,103513.78
2023-02-06T16:59:51.538Z,103514.44
2023-02-06T17:02:19.323Z,103518.13
2023-02-06T17:04:47.172Z,103509.44
2023-02-06T17:07:19.276Z,103507.44
2023-02-06T17:09:47.941Z,103515.03
2023-02-06T17:12:17.464Z,103512.03
2023-02-06T17:14:45.542Z,103513.03
2023-02-06T17:17:14.537Z,103514.13
2023-02-06T17:19:43.120Z,103525.44
2023-02-06T17:22:11.938Z,103525.22
2023-02-06T17:24:42.127Z,103525.63
2023-02-06T17:27:14.488Z,103523.44
2023-02-06T17:29:42.388Z,103520.63
2023-02-06T17:32:10.072Z,103516.47
2023-02-06T17:34:38.438Z,103519.44
2023-02-06T17:37:08.006Z,103526.91
2023-02-06T17:39:36.298Z,103531.56
2023-02-06T17:42:05.403Z,103518.22
2023-02-06T17:44:33.074Z,103531.56
2023-02-06T17:47:00.699Z,103529.13
2023-02-06T17:49:28.348Z,103535.50
2023-02-06T17:51:56.609Z,103532.94
2023-02-06T17:54:24.335Z,103535.88
2023-02-06T17:56:52.050Z,103533.44
2023-02-06T17:59:21.016Z,103535.16
2023-02-06T18:01:48.839Z,103529.22
2023-02-06T18:04:19.545Z,103524.66
2023-02-06T18:06:47.170Z,103530.56
2023-02-06T18:09:16.154Z,103518.94
2023-02-06T18:11:43.804Z,103528.72
2023-02-06T18:14:11.562Z,103531.66
2023-02-06T18:16:42.852Z,103522.84
2023-02-06T18:19:11.230Z,103519.19
2023-02-06T18:21:38.949Z,103522.84
2023-02-06T18:24:07.591Z,103523.72
2023-02-06T18:26:35.423Z,103530.94
2023-02-06T18:29:05.047Z,103524.72
2023-02-06T18:31:35.285Z,103523.97
2023-02-06T18:34:07.837Z,103517.88
2023-02-06T18:36:36.503Z,103512.88
2023-02-06T18:39:05.135Z,103517.63
2023-02-06T18:41:50.142Z,103514.34
2023-02-06T18:44:17.841Z,103517.66
2023-02-06T18:46:45.580Z,103515.22
2023-02-06T18:49:14.621Z,103514.59
2023-02-06T18:51:42.329Z,103512.28
2023-02-06T18:54:10.373Z,103506.31
2023-02-06T18:56:38.401Z,103517.06
2023-02-06T18:59:06.902Z,103517.06
2023-02-06T19:01:34.645Z,103526.84
2023-02-06T19:04:02.369Z,103532.59
2023-02-06T19:06:36.535Z,103548.72
2023-02-06T19:09:07.026Z,103537.47
2023-02-06T19:11:35.052Z,103537.72
2023-02-06T19:14:04.365Z,103536.97
2023-02-06T19:16:32.650Z,103529.03
2023-02-06T19:19:01.510Z,103532.97
2023-02-06T19:21:29.246Z,103540.41
2023-02-06T19:23:59.886Z,103542.34
2023-02-06T19:26:28.758Z,103558.59
2023-02-06T19:28:57.023Z,103550.78
2023-02-06T19:31:25.137Z,103557.25
2023-02-06T19:33:54.790Z,103552.88
2023-02-06T19:36:24.226Z,103556.00
2023-02-06T19:38:55.044Z,103554.53
2023-02-06T19:41:26.563Z,103563.22
2023-02-06T19:43:56.015Z,103555.41
2023-02-06T19:46:25.823Z,103565.53
2023-02-06T19:48:54.570Z,103568.31
2023-02-06T19:51:24.947Z,103565.78
2023-02-06T19:53:53.384Z,103574.06
2023-02-06T19:56:22.916Z,103580.78
2023-02-06T19:58:56.122Z,103577.97
2023-02-06T20:01:24.686Z,103580.13
2023-02-06T20:03:54.194Z,103571.47
2023-02-06T20:06:22.018Z,103570.50
2023-02-06T20:08:49.867Z,103571.59
2023-02-06T20:11:22.962Z,103571.81
2023-02-06T20:13:52.005Z,103579.88
2023-02-06T20:16:23.396Z,103589.31
2023-02-06T20:18:51.540Z,103582.22
2023-02-06T20:21:21.983Z,103580.28
2023-02-06T20:23:50.740Z,103567.69
2023-02-06T20:26:20.382Z,103578.44
2023-02-06T20:28:48.379Z,103569.28
2023-02-06T20:31:16.745Z,103577.47
2023-02-06T20:33:46.679Z,103570.50
2023-02-06T20:36:16.781Z,103569.13
2023-02-06T20:38:47.955Z,103567.28
2023-02-06T20:41:16.061Z,103571.94
2023-02-06T20:43:43.804Z,103577.09
2023-02-06T20:46:12.009Z,103580.63
2023-02-06T20:48:39.691Z,103576.22
2023-02-06T20:51:08.828Z,103572.66
2023-02-06T20:53:36.503Z,103585.34
2023-02-06T20:56:04.409Z,103580.13
2023-02-06T20:58:32.091Z,103587.44
2023-02-06T21:00:59.795Z,103580.81
2023-02-06T21:03:27.923Z,103580.53
2023-02-06T21:05:57.504Z,103587.69
2023-02-06T21:08:27.153Z,103595.63
2023-02-06T21:10:54.880Z,103595.97
2023-02-06T21:13:22.542Z,103605.09
2023-02-06T21:15:53.776Z,103603.75
2023-02-06T21:18:22.149Z,103612.13
2023-02-06T21:20:50.740Z,103615.66
2023-02-06T21:23:18.517Z,103609.31
2023-02-06T21:25:52.831Z,103614.59
2023-02-06T21:28:21.037Z,103615.56
2023-02-06T21:30:49.905Z,103613.56
2023-02-06T21:33:17.810Z,103609.03
2023-02-06T21:35:50.462Z,103622.34
2023-02-06T21:38:18.459Z,103632.22
2023-02-06T21:40:46.295Z,103630.50
2023-02-06T21:43:15.799Z,103624.50
2023-02-06T21:45:43.642Z,103627.19
2023-02-06T21:48:11.374Z,103610.25
2023-02-06T21:50:40.309Z,103605.09
2023-02-06T21:53:09.717Z,103599.09
2023-02-06T21:55:43.028Z,103598.91
2023-02-06T21:58:10.765Z,103597.53
2023-02-06T22:00:39.753Z,103596.03
2023-02-06T22:03:07.437Z,103598.31
2023-02-06T22:05:35.587Z,103608.19
2023-02-06T22:08:03.461Z,103622.34
2023-02-06T22:10:31.256Z,103610.31
2023-02-06T22:12:58.995Z,103611.56
2023-02-06T22:15:26.709Z,103610.75
2023-02-06T22:17:55.791Z,103609.13
2023-02-06T22:20:23.525Z,103619.22
2023-02-06T22:22:51.266Z,103618.59
2023-02-06T22:25:18.946Z,103616.75
2023-02-06T22:27:46.658Z,103623.22
2023-02-06T22:30:15.109Z,103626.44
2023-02-06T22:32:42.803Z,103626.09
2023-02-06T22:35:11.835Z,103630.84
2023-02-06T22:37:39.495Z,103631.81
2023-02-06T22:40:08.026Z,103631.81
2023-02-06T22:42:35.932Z,103623.03
2023-02-06T22:45:03.774Z,103613.38
2023-02-06T22:47:31.405Z,103619.56
2023-02-06T22:49:59.081Z,103623.13
2023-02-06T22:52:46.032Z,103622.25
2023-02-06T22:55:13.715Z,103611.75
2023-02-06T22:57:41.358Z,103621.28
2023-02-06T23:00:12.077Z,103622.38
2023-02-06T23:02:40.135Z,103636.75
2023-02-06T23:05:09.354Z,103625.28
2023-02-06T23:07:38.457Z,103628.38
2023-02-06T23:10:06.670Z,103620.75
2023-02-06T23:12:34.390Z,103626.66
2023-02-06T23:15:02.066Z,103626.56
2023-02-06T23:17:29.731Z,103628.81
2023-02-06T23:19:57.431Z,103645.00
2023-02-06T23:22:25.110Z,103637.38
2023-02-06T23:24:54.191Z,103630.53
2023-02-06T23:27:21.798Z,103629.47
2023-02-06T23:29:49.439Z,103641.25
2023-02-06T23:32:17.121Z,103644.66
2023-02-06T23:34:44.858Z,103652.72
2023-02-06T23:37:12.521Z,103650.78
2023-02-06T23:39:40.239Z,103659.69
2023-02-06T23:42:09.259Z,103651.97
2023-02-06T23:44:36.944Z,103658.41
2023-02-06T23:47:04.786Z,103655.16
2023-02-06T23:49:32.470Z,103664.28
2023-02-06T23:52:00.228Z,103661.09
2023-02-06T23:54:27.902Z,103662.97
2023-02-06T23:56:55.613Z,103652.69
2023-02-06T23:59:24.640Z,103659.22
